createdAt,value
2023-05-22T00:02:01.168Z,52.71
2023-05-22T00:04:30.552Z,52.33
2023-05-22T00:06:58.695Z,52.03
2023-05-22T00:09:27.069Z,52.07
2023-05-22T00:11:55.549Z,52.31
2023-05-22T00:14:23.504Z,52.02
2023-05-22T00:16:51.249Z,51.71
2023-05-22T00:19:23.401Z,51.88
2023-05-22T00:21:52.566Z,52.46
2023-05-22T00:24:20.620Z,51.97
2023-05-22T00:26:48.329Z,52.73
2023-05-22T00:29:15.988Z,53.19
2023-05-22T00:31:43.699Z,53.02
2023-05-22T00:34:11.948Z,53.20
2023-05-22T00:36:39.684Z,53.44
2023-05-22T00:39:09.618Z,53.05
2023-05-22T00:41:38.498Z,53.99
2023-05-22T00:44:08.302Z,53.96
2023-05-22T00:46:36.380Z,53.47
2023-05-22T00:49:04.693Z,53.99
2023-05-22T00:51:32.671Z,53.71
2023-05-22T00:54:01.352Z,53.00
2023-05-22T00:56:30.388Z,53.01
2023-05-22T00:58:58.730Z,52.92
2023-05-22T01:01:33.367Z,52.92
2023-05-22T01:04:02.298Z,52.80
2023-05-22T01:06:32.162Z,52.90
2023-05-22T01:11:56.466Z,53.45
2023-05-22T01:14:31.762Z,53.63
2023-05-22T01:17:09.343Z,53.69
2023-05-22T01:20:07.182Z,53.81
2023-05-22T01:23:16.448Z,53.81
2023-05-22T01:26:21.247Z,54.04
2023-05-22T01:29:12.927Z,54.45
2023-05-22T01:31:45.012Z,54.55
2023-05-22T01:34:13.827Z,55.05
2023-05-22T01:36:47.316Z,55.23
2023-05-22T01:39:16.183Z,55.01
2023-05-22T01:41:45.001Z,54.75
2023-05-22T01:44:12.723Z,55.23
2023-05-22T01:46:42.463Z,55.45
2023-05-22T01:49:10.424Z,55.70
2023-05-22T01:51:49.088Z,55.95
2023-05-22T01:54:24.159Z,56.17
2023-05-22T01:56:56.675Z,55.93
2023-05-22T01:59:31.429Z,55.50
2023-05-22T02:02:06.622Z,55.99
2023-05-22T02:04:38.966Z,56.00
2023-05-22T02:07:10.705Z,55.92
2023-05-22T02:09:41.294Z,55.77
2023-05-22T02:12:10.654Z,55.75
2023-05-22T02:14:38.679Z,55.56
2023-05-22T02:17:08.781Z,56.01
2023-05-22T02:19:37.257Z,57.28
2023-05-22T02:22:05.117Z,57.10
2023-05-22T02:24:33.770Z,57.14
2023-05-22T02:27:01.522Z,57.42
2023-05-22T02:29:29.609Z,57.36
2023-05-22T02:31:57.273Z,57.71
2023-05-22T02:34:27.165Z,57.56
2023-05-22T02:36:56.250Z,57.21
2023-05-22T02:39:24.489Z,57.05
2023-05-22T02:41:52.186Z,57.51
2023-05-22T02:44:20.367Z,57.09
2023-05-22T02:46:48.393Z,57.39
2023-05-22T02:49:16.505Z,57.21
2023-05-22T02:51:47.656Z,57.36
2023-05-22T02:54:16.992Z,57.66
2023-05-22T02:56:44.993Z,57.45
2023-05-22T02:59:12.726Z,57.57
2023-05-22T03:01:42.123Z,57.06
2023-05-22T03:04:09.886Z,56.82
2023-05-22T03:06:38.785Z,57.90
2023-05-22T03:09:08.654Z,57.98
2023-05-22T03:11:36.794Z,58.12
2023-05-22T03:14:04.647Z,58.07
2023-05-22T03:16:33.199Z,58.41
2023-05-22T03:19:09.302Z,58.59
2023-05-22T03:21:37.463Z,58.79
2023-05-22T03:24:05.514Z,58.36
2023-05-22T03:26:35.264Z,58.75
2023-05-22T03:29:03.126Z,59.05
2023-05-22T03:31:32.596Z,58.81
2023-05-22T03:34:00.746Z,58.84
2023-05-22T03:36:30.538Z,58.86
2023-05-22T03:39:00.064Z,58.78
2023-05-22T03:41:28.134Z,58.75
2023-05-22T03:43:57.251Z,59.10
2023-05-22T03:46:25.814Z,59.41
2023-05-22T03:48:53.616Z,59.39
2023-05-22T03:51:21.887Z,59.47
2023-05-22T03:53:49.674Z,59.44
2023-05-22T03:56:17.857Z,59.75
2023-05-22T03:58:45.607Z,59.90
2023-05-22T04:01:17.175Z,60.13
2023-05-22T04:03:44.928Z,60.68
2023-05-22T04:06:13.985Z,60.73
2023-05-22T04:08:41.712Z,61.10
2023-05-22T04:11:10.425Z,62.03
2023-05-22T04:13:38.179Z,62.42
2023-05-22T04:16:06.459Z,62.50
2023-05-22T04:18:36.010Z,62.53
2023-05-22T04:21:04.153Z,62.89
2023-05-22T04:23:32.329Z,63.13
2023-05-22T04:26:02.315Z,63.42
2023-05-22T04:28:30.605Z,63.60
2023-05-22T04:30:58.389Z,63.39
2023-05-22T04:33:26.093Z,63.21
2023-05-22T04:35:55.478Z,63.78
2023-05-22T04:38:26.608Z,64.60
2023-05-22T04:40:54.975Z,63.77
2023-05-22T04:43:23.812Z,63.19
2023-05-22T04:45:51.536Z,63.57
2023-05-22T04:48:19.836Z,63.40
2023-05-22T04:50:48.245Z,63.39
2023-05-22T04:53:17.690Z,63.69
2023-05-22T04:55:46.007Z,64.33
2023-05-22T04:58:14.320Z,64.76
2023-05-22T05:00:42.334Z,64.02
2023-05-22T05:03:12.009Z,63.47
2023-05-22T05:05:39.891Z,63.90
2023-05-22T05:08:08.095Z,64.26
2023-05-22T05:10:37.334Z,63.69
2023-05-22T05:13:05.511Z,62.57
2023-05-22T05:15:33.288Z,62.96
2023-05-22T05:18:01.747Z,63.71
2023-05-22T05:20:30.481Z,62.63
2023-05-22T05:22:58.162Z,61.57
2023-05-22T05:25:26.584Z,61.16
2023-05-22T05:27:56.317Z,61.83
2023-05-22T05:30:25.522Z,62.09
2023-05-22T05:32:53.246Z,61.96
2023-05-22T05:35:21.939Z,61.96
2023-05-22T05:37:49.702Z,62.37
2023-05-22T05:40:17.985Z,63.10
2023-05-22T05:42:45.627Z,62.24
2023-05-22T05:45:16.169Z,61.74
2023-05-22T05:47:43.701Z,62.86
2023-05-22T05:50:15.755Z,63.69
2023-05-22T05:52:43.444Z,64.64
2023-05-22T05:55:11.715Z,65.28
2023-05-22T05:57:39.524Z,65.83
2023-05-22T06:00:10.806Z,66.70
2023-05-22T06:02:39.902Z,66.94
2023-05-22T06:05:09.316Z,64.99
2023-05-22T06:07:39.744Z,62.66
2023-05-22T06:10:08.692Z,63.16
2023-05-22T06:12:36.756Z,62.54
2023-05-22T06:15:05.378Z,61.43
2023-05-22T06:17:33.487Z,60.38
2023-05-22T06:20:02.667Z,60.11
2023-05-22T06:22:30.838Z,60.73
2023-05-22T06:24:58.566Z,60.82
2023-05-22T06:27:27.759Z,60.84
2023-05-22T06:29:56.516Z,61.18
2023-05-22T06:32:24.877Z,62.04
2023-05-22T06:34:52.679Z,62.26
2023-05-22T06:37:22.188Z,61.91
2023-05-22T06:39:49.902Z,62.84
2023-05-22T06:42:17.990Z,63.92
2023-05-22T06:44:45.661Z,63.46
2023-05-22T06:47:13.767Z,65.39
2023-05-22T06:49:41.477Z,64.49
2023-05-22T06:52:10.053Z,61.03
2023-05-22T06:54:42.790Z,60.37
2023-05-22T06:57:11.105Z,61.21
2023-05-22T06:59:38.823Z,61.04
2023-05-22T07:02:07.026Z,59.95
2023-05-22T07:04:34.856Z,61.77
2023-05-22T07:07:02.622Z,62.20
2023-05-22T07:09:30.605Z,62.05
2023-05-22T07:11:59.702Z,61.41
2023-05-22T07:14:28.403Z,61.07
2023-05-22T07:16:56.266Z,60.82
2023-05-22T07:19:24.497Z,60.71
2023-05-22T07:21:52.292Z,61.17
2023-05-22T07:24:20.487Z,61.65
2023-05-22T07:26:49.391Z,60.70
2023-05-22T07:29:19.057Z,59.62
2023-05-22T07:31:47.222Z,60.18
2023-05-22T07:34:15.480Z,61.13
2023-05-22T07:36:43.258Z,58.82
2023-05-22T07:39:11.287Z,58.36
2023-05-22T07:41:39.829Z,59.13
2023-05-22T07:44:08.067Z,59.18
2023-05-22T07:46:38.228Z,59.31
2023-05-22T07:49:06.433Z,58.82
2023-05-22T07:51:34.675Z,59.25
2023-05-22T07:54:02.352Z,58.70
2023-05-22T07:56:31.056Z,57.21
2023-05-22T07:58:58.820Z,56.50
2023-05-22T08:01:27.354Z,57.32
2023-05-22T08:03:56.590Z,58.39
2023-05-22T08:06:25.076Z,58.94
2023-05-22T08:08:53.484Z,59.28
2023-05-22T08:11:21.766Z,57.95
2023-05-22T08:13:49.853Z,58.40
2023-05-22T08:16:18.027Z,56.52
2023-05-22T08:18:45.861Z,55.53
2023-05-22T08:21:15.299Z,55.13
2023-05-22T08:23:42.955Z,54.37
2023-05-22T08:26:11.111Z,53.39
2023-05-22T08:28:42.034Z,53.89
2023-05-22T08:31:10.173Z,53.96
2023-05-22T08:33:37.958Z,53.24
2023-05-22T08:36:06.602Z,52.69
2023-05-22T08:38:35.880Z,52.47
2023-05-22T08:41:04.053Z,51.58
2023-05-22T08:43:31.785Z,53.29
2023-05-22T08:46:03.276Z,50.75
2023-05-22T08:48:32.687Z,51.81
2023-05-22T08:51:04.519Z,51.81
2023-05-22T08:53:36.753Z,52.62
2023-05-22T08:56:07.875Z,50.11
2023-05-22T08:58:37.879Z,50.70
2023-05-22T09:01:07.171Z,50.75
2023-05-22T09:03:37.403Z,50.64
2023-05-22T09:06:10.957Z,49.21
2023-05-22T09:08:40.402Z,50.19
2023-05-22T09:11:08.127Z,50.65
2023-05-22T09:13:36.107Z,50.42
2023-05-22T09:16:11.039Z,49.75
2023-05-22T09:18:39.764Z,50.78
2023-05-22T09:21:21.533Z,50.07
2023-05-22T09:24:01.603Z,47.45
2023-05-22T09:26:29.966Z,48.38
2023-05-22T09:29:01.034Z,49.13
2023-05-22T09:31:30.699Z,49.29
2023-05-22T09:33:59.214Z,47.06
2023-05-22T09:36:33.408Z,46.17
2023-05-22T09:39:03.974Z,45.29
2023-05-22T09:41:37.080Z,46.75
2023-05-22T09:44:13.737Z,45.23
2023-05-22T09:46:43.056Z,45.29
2023-05-22T09:49:13.322Z,45.93
2023-05-22T09:51:48.481Z,46.78
2023-05-22T09:54:21.737Z,45.06
2023-05-22T09:56:51.236Z,48.37
2023-05-22T09:59:22.238Z,46.57
2023-05-22T10:01:52.241Z,47.24
2023-05-22T10:04:22.847Z,45.92
2023-05-22T10:06:52.931Z,46.06
2023-05-22T10:09:26.990Z,48.31
2023-05-22T10:11:56.556Z,46.71
2023-05-22T10:14:25.587Z,46.39
2023-05-22T10:16:54.525Z,46.39
2023-05-22T10:19:27.467Z,45.65
2023-05-22T10:21:58.157Z,46.45
2023-05-22T10:24:28.066Z,47.02
2023-05-22T10:26:56.174Z,46.18
2023-05-22T10:29:30.832Z,44.98
2023-05-22T10:32:05.818Z,43.97
2023-05-22T10:34:41.904Z,46.66
2023-05-22T10:37:23.007Z,48.03
2023-05-22T10:40:02.311Z,44.18
2023-05-22T10:42:31.595Z,44.00
2023-05-22T10:45:01.772Z,42.67
2023-05-22T10:47:29.643Z,44.25
2023-05-22T10:50:09.820Z,42.57
2023-05-22T10:52:37.794Z,44.41
2023-05-22T10:55:12.348Z,43.03
2023-05-22T10:57:41.231Z,42.97
2023-05-22T11:00:12.119Z,41.51
2023-05-22T11:02:42.064Z,43.58
2023-05-22T11:05:45.338Z,43.57
2023-05-22T11:08:36.579Z,44.33
2023-05-22T11:11:14.303Z,43.20
2023-05-22T11:13:43.613Z,43.74
2023-05-22T11:16:12.263Z,42.21
2023-05-22T11:18:40.448Z,41.52
2023-05-22T11:21:11.567Z,40.72
2023-05-22T11:23:40.025Z,39.67
2023-05-22T11:26:26.274Z,42.57
2023-05-22T11:28:56.410Z,40.18
2023-05-22T11:31:24.387Z,39.67
2023-05-22T11:33:52.180Z,40.44
2023-05-22T11:36:20.484Z,40.78
2023-05-22T11:38:48.209Z,37.71
2023-05-22T11:41:17.468Z,40.19
2023-05-22T11:43:46.558Z,39.39
2023-05-22T11:46:15.395Z,41.13
2023-05-22T11:48:43.678Z,38.93
2023-05-22T11:51:11.461Z,39.22
2023-05-22T11:53:39.647Z,39.35
2023-05-22T11:56:07.416Z,38.32
2023-05-22T11:58:35.427Z,37.95
2023-05-22T12:01:05.392Z,40.30
2023-05-22T12:03:34.279Z,36.49
2023-05-22T12:06:02.798Z,38.03
2023-05-22T12:08:31.709Z,39.77
2023-05-22T12:10:59.514Z,39.09
2023-05-22T12:13:29.302Z,38.92
2023-05-22T12:16:00.313Z,37.58
2023-05-22T12:18:37.871Z,39.30
2023-05-22T12:21:07.198Z,38.14
2023-05-22T12:23:34.967Z,36.81
2023-05-22T12:26:05.854Z,36.32
2023-05-22T12:28:34.467Z,36.19
2023-05-22T12:31:02.154Z,34.16
2023-05-22T12:33:32.368Z,36.67
2023-05-22T12:36:00.144Z,37.00
2023-05-22T12:38:30.655Z,32.45
2023-05-22T12:41:00.117Z,34.89
2023-05-22T12:43:28.149Z,34.81
2023-05-22T12:45:55.871Z,35.52
2023-05-22T12:48:24.329Z,35.36
2023-05-22T12:50:54.311Z,34.17
2023-05-22T12:53:22.349Z,33.15
2023-05-22T12:55:50.071Z,32.88
2023-05-22T12:58:17.861Z,33.64
2023-05-22T13:00:46.013Z,32.39
2023-05-22T13:03:13.949Z,32.17
2023-05-22T13:05:42.307Z,34.73
2023-05-22T13:08:11.561Z,33.21
2023-05-22T13:10:39.683Z,32.59
2023-05-22T13:13:07.383Z,33.04
2023-05-22T13:15:37.143Z,33.07
2023-05-22T13:18:05.027Z,35.19
2023-05-22T13:20:33.196Z,32.20
2023-05-22T13:23:00.920Z,30.19
2023-05-22T13:25:30.399Z,31.75
2023-05-22T13:27:59.880Z,34.08
2023-05-22T13:30:28.733Z,33.32
2023-05-22T13:32:56.751Z,30.90
2023-05-22T13:35:25.597Z,32.43
2023-05-22T13:37:53.874Z,32.72
2023-05-22T13:40:22.375Z,29.54
2023-05-22T13:42:52.623Z,30.43
2023-05-22T13:45:21.039Z,31.01
2023-05-22T13:47:49.611Z,31.30
2023-05-22T13:50:17.844Z,29.94
2023-05-22T13:52:45.741Z,30.40
2023-05-22T13:55:14.041Z,30.57
2023-05-22T13:57:41.849Z,32.73
2023-05-22T14:00:13.235Z,31.99
2023-05-22T14:02:41.168Z,30.02
2023-05-22T14:05:10.302Z,31.55
2023-05-22T14:07:37.996Z,30.94
2023-05-22T14:10:07.020Z,30.82
2023-05-22T14:12:34.779Z,30.50
2023-05-22T14:15:03.633Z,31.18
2023-05-22T14:17:32.697Z,30.75
2023-05-22T14:20:00.393Z,31.17
2023-05-22T14:22:28.667Z,31.38
2023-05-22T14:24:56.914Z,32.18
2023-05-22T14:27:25.127Z,31.35
2023-05-22T14:29:52.917Z,32.59
2023-05-22T14:32:21.922Z,29.85
2023-05-22T14:34:51.788Z,32.82
2023-05-22T14:37:20.121Z,32.75
2023-05-22T14:39:47.880Z,32.91
2023-05-22T14:42:16.017Z,33.50
2023-05-22T14:44:43.710Z,33.34
2023-05-22T14:47:11.386Z,30.61
2023-05-22T14:49:39.166Z,29.94
2023-05-22T14:52:08.599Z,32.02
2023-05-22T14:54:36.308Z,28.88
2023-05-22T14:57:04.410Z,30.78
2023-05-22T14:59:34.148Z,29.27
2023-05-22T15:02:01.912Z,31.88
2023-05-22T15:04:30.075Z,30.28
2023-05-22T15:06:57.782Z,30.24
2023-05-22T15:09:26.842Z,31.24
2023-05-22T15:11:56.180Z,31.32
2023-05-22T15:14:23.974Z,30.53
2023-05-22T15:16:51.932Z,31.22
2023-05-22T15:19:19.799Z,29.99
2023-05-22T15:21:47.577Z,31.42
2023-05-22T15:24:15.850Z,30.77
2023-05-22T15:26:44.967Z,30.82
2023-05-22T15:29:13.283Z,31.09
2023-05-22T15:31:41.083Z,33.25
2023-05-22T15:34:09.041Z,31.47
2023-05-22T15:36:37.471Z,31.36
2023-05-22T15:39:05.719Z,32.47
2023-05-22T15:41:33.432Z,32.85
2023-05-22T15:44:02.862Z,33.30
2023-05-22T15:46:30.609Z,33.00
2023-05-22T15:48:58.741Z,32.09
2023-05-22T15:51:26.493Z,33.66
2023-05-22T15:53:54.641Z,33.50
2023-05-22T15:56:22.794Z,30.01
2023-05-22T15:58:50.942Z,30.95
2023-05-22T16:01:20.083Z,31.78
2023-05-22T16:03:47.834Z,31.88
2023-05-22T16:06:16.052Z,31.74
2023-05-22T16:08:43.752Z,32.53
2023-05-22T16:11:11.835Z,32.71
2023-05-22T16:13:39.682Z,33.38
2023-05-22T16:16:08.094Z,34.11
2023-05-22T16:18:37.221Z,31.75
2023-05-22T16:21:05.349Z,33.56
2023-05-22T16:23:34.018Z,31.29
2023-05-22T16:26:01.720Z,32.17
2023-05-22T16:28:29.646Z,31.72
2023-05-22T16:30:57.339Z,31.79
2023-05-22T16:33:25.114Z,32.00
2023-05-22T16:35:54.653Z,31.97
2023-05-22T16:38:22.346Z,32.09
2023-05-22T16:40:50.523Z,33.32
2023-05-22T16:43:18.322Z,34.38
2023-05-22T16:45:51.269Z,32.93
2023-05-22T16:48:19.253Z,33.92
2023-05-22T16:50:47.588Z,33.78
2023-05-22T16:53:17.080Z,34.56
2023-05-22T16:55:44.968Z,33.00
2023-05-22T16:58:14.354Z,33.15
2023-05-22T17:00:42.442Z,33.39
2023-05-22T17:03:11.800Z,34.37
2023-05-22T17:05:40.513Z,34.14
2023-05-22T17:08:09.010Z,33.78
2023-05-22T17:10:38.060Z,33.02
2023-05-22T17:13:06.383Z,33.40
2023-05-22T17:15:34.422Z,33.10
2023-05-22T17:18:03.262Z,33.27
2023-05-22T17:20:34.139Z,33.58
2023-05-22T17:23:02.186Z,32.21
2023-05-22T17:25:29.951Z,32.62
2023-05-22T17:27:59.556Z,33.09
2023-05-22T17:30:27.275Z,33.93
2023-05-22T17:32:56.862Z,33.53
2023-05-22T17:35:24.755Z,36.62
2023-05-22T17:37:52.476Z,37.57
2023-05-22T17:40:20.989Z,35.35
2023-05-22T17:42:49.056Z,36.61
2023-05-22T17:45:18.292Z,37.49
2023-05-22T17:47:46.669Z,36.47
2023-05-22T17:50:14.597Z,35.82
2023-05-22T17:52:42.657Z,36.74
2023-05-22T17:55:10.945Z,36.50
2023-05-22T17:57:39.658Z,36.01
2023-05-22T18:00:10.136Z,37.32
2023-05-22T18:02:39.440Z,36.56
2023-05-22T18:05:08.517Z,35.72
2023-05-22T18:07:36.620Z,35.44
2023-05-22T18:10:05.409Z,35.93
2023-05-22T18:12:33.103Z,36.26
2023-05-22T18:15:01.213Z,36.81
2023-05-22T18:17:28.948Z,37.60
2023-05-22T18:19:58.479Z,38.00
2023-05-22T18:22:26.898Z,38.24
2023-05-22T18:24:54.624Z,37.92
2023-05-22T18:27:22.372Z,37.25
2023-05-22T18:35:24.140Z,37.71
2023-05-22T18:37:51.813Z,38.87
2023-05-22T18:40:19.625Z,38.93
2023-05-22T18:42:47.681Z,39.59
2023-05-22T18:45:15.875Z,39.37
2023-05-22T18:47:43.657Z,39.48
2023-05-22T18:50:12.837Z,38.83
2023-05-22T18:52:41.889Z,40.07
2023-05-22T18:55:10.937Z,40.61
2023-05-22T18:57:38.722Z,40.11
2023-05-22T19:00:09.210Z,40.25
2023-05-22T19:02:37.074Z,40.30
2023-05-22T19:05:05.522Z,40.21
2023-05-22T19:07:33.639Z,40.10
2023-05-22T19:10:04.881Z,40.60
2023-05-22T19:12:34.374Z,40.18
2023-05-22T19:15:02.090Z,41.09
2023-05-22T19:17:30.119Z,41.29
2023-05-22T19:19:57.868Z,41.06
2023-05-22T19:22:26.111Z,41.08
2023-05-22T19:24:53.818Z,41.47
2023-05-22T19:27:23.861Z,41.04
2023-05-22T19:29:51.595Z,41.28
2023-05-22T19:32:19.637Z,41.20
2023-05-22T19:34:47.455Z,41.93
2023-05-22T19:37:15.572Z,42.36
2023-05-22T19:39:43.334Z,42.54
2023-05-22T19:42:12.162Z,42.53
2023-05-22T19:44:41.213Z,42.51
2023-05-22T19:47:09.622Z,42.27
2023-05-22T19:49:37.373Z,42.28
2023-05-22T19:52:06.239Z,42.48
2023-05-22T19:54:34.141Z,42.56
2023-05-22T19:57:01.801Z,42.75
2023-05-22T19:59:30.622Z,42.63
2023-05-22T20:01:59.727Z,42.66
2023-05-22T20:04:27.519Z,42.96
2023-05-22T20:06:55.237Z,42.91
2023-05-22T20:09:23.457Z,42.97
2023-05-22T20:11:51.352Z,43.94
2023-05-22T20:14:19.098Z,44.19
2023-05-22T20:16:47.326Z,44.14
2023-05-22T20:19:17.519Z,44.07
2023-05-22T20:21:49.051Z,44.15
2023-05-22T20:24:19.055Z,44.59
2023-05-22T20:26:47.494Z,44.79
2023-05-22T20:29:15.639Z,44.94
2023-05-22T20:31:43.723Z,45.25
2023-05-22T20:34:11.729Z,45.36
2023-05-22T20:36:42.374Z,45.36
2023-05-22T20:39:11.737Z,45.19
2023-05-22T20:41:39.495Z,44.86
2023-05-22T20:44:08.093Z,45.27
2023-05-22T20:46:35.885Z,45.62
2023-05-22T20:49:05.462Z,45.16
2023-05-22T20:51:33.453Z,45.29
2023-05-22T20:54:03.021Z,45.79
2023-05-22T20:56:30.986Z,46.25
2023-05-22T20:58:58.723Z,46.73
2023-05-22T21:01:27.079Z,46.45
2023-05-22T21:03:56.345Z,46.76
2023-05-22T21:06:24.537Z,47.15
2023-05-22T21:08:54.258Z,47.16
2023-05-22T21:11:23.530Z,47.21
2023-05-22T21:13:51.474Z,47.42
2023-05-22T21:16:19.568Z,47.40
2023-05-22T21:18:47.836Z,47.43
2023-05-22T21:21:16.363Z,47.18
2023-05-22T21:23:44.990Z,47.51
2023-05-22T21:26:12.667Z,47.79
2023-05-22T21:28:43.661Z,48.21
2023-05-22T21:31:11.383Z,47.96
2023-05-22T21:33:39.502Z,47.63
2023-05-22T21:36:07.633Z,47.83
2023-05-22T21:38:35.862Z,47.71
2023-05-22T21:41:04.412Z,47.62
2023-05-22T21:43:32.063Z,48.12
2023-05-22T21:46:01.496Z,48.81
2023-05-22T21:48:29.178Z,48.62
2023-05-22T21:50:57.296Z,48.65
2023-05-22T21:53:24.957Z,48.39
2023-05-22T21:55:53.088Z,48.29
2023-05-22T21:58:20.844Z,48.78
2023-05-22T22:00:48.837Z,49.03
2023-05-22T22:03:17.959Z,49.53
2023-05-22T22:05:45.646Z,49.25
2023-05-22T22:08:13.703Z,48.85
2023-05-22T22:10:41.631Z,48.86
2023-05-22T22:13:09.815Z,48.33
2023-05-22T22:15:37.686Z,48.49
2023-05-22T22:18:06.085Z,48.40
2023-05-22T22:20:44.349Z,48.02
2023-05-22T22:23:13.569Z,48.48
2023-05-22T22:25:41.293Z,48.36
2023-05-22T22:28:08.972Z,48.46
2023-05-22T22:30:37.069Z,48.69
2023-05-22T22:33:04.908Z,47.95
2023-05-22T22:35:34.308Z,47.39
2023-05-22T22:38:03.364Z,47.71
2023-05-22T22:40:31.430Z,48.29
2023-05-22T22:42:59.130Z,48.58
2023-05-22T22:45:26.861Z,48.24
2023-05-22T22:47:56.441Z,47.90
2023-05-22T22:50:25.604Z,48.61
2023-05-22T22:52:53.472Z,48.66
2023-05-22T22:55:23.094Z,48.30
2023-05-22T22:57:51.497Z,48.58
2023-05-22T23:00:21.218Z,48.60
2023-05-22T23:02:48.918Z,48.48
2023-05-22T23:05:20.609Z,48.94
2023-05-22T23:07:49.278Z,50.04
2023-05-22T23:10:17.368Z,50.34
2023-05-22T23:12:48.887Z,50.10
2023-05-22T23:15:16.942Z,50.01
2023-05-22T23:17:44.790Z,50.02
2023-05-22T23:20:13.787Z,49.96
2023-05-22T23:22:41.924Z,50.00
2023-05-22T23:25:10.456Z,49.67
2023-05-22T23:27:39.511Z,49.70
2023-05-22T23:30:09.604Z,49.61
2023-05-22T23:32:37.308Z,49.94
2023-05-22T23:35:06.096Z,50.43
2023-05-22T23:37:33.800Z,50.59
2023-05-22T23:40:01.809Z,50.86
2023-05-22T23:42:29.461Z,50.74
2023-05-22T23:44:57.089Z,50.27
2023-05-22T23:47:26.395Z,50.49
2023-05-22T23:49:56.710Z,51.24
2023-05-22T23:52:24.348Z,51.17
2023-05-22T23:54:52.250Z,51.37
2023-05-22T23:57:19.874Z,51.23
2023-05-22T23:59:47.817Z,51.14
